Time;durP1;ratioP1;P1;durP2;ratioP2;P2;SDS_P1;SDS_P2;PMS_P1;PMS_P2;Temp;Humidity;BMP_temperature;BMP_pressure;BME280_temperature;BME280_humidity;BME280_pressure;Samples;Min_cycle;Max_cycle;Signal;HPM_P1;HPM_P2
2022/01/14 00:00:31;;;;;;;48.78;20.73;;;;;;;-1.48;98.16;100567.47;5025467;28;20053;-64
2022/01/14 00:02:56;;;;;;;54.67;22.20;;;;;;;-1.50;98.25;100569.97;5025445;28;20026;-64
2022/01/14 00:05:22;;;;;;;56.38;21.30;;;;;;;-1.47;98.46;100577.00;5025282;28;20022;-64
2022/01/14 00:07:47;;;;;;;50.20;22.40;;;;;;;-1.46;98.39;100577.09;5025309;28;20033;-64
2022/01/14 00:10:12;;;;;;;50.22;21.88;;;;;;;-1.41;98.62;100579.94;5025001;28;20025;-64
2022/01/14 00:12:46;;;;;;;50.15;20.63;;;;;;;-1.40;97.84;100572.28;5012325;28;20046;-64
2022/01/14 00:15:35;;;;;;;42.03;18.23;;;;;;;-1.55;97.88;100566.22;5006091;28;20018;-64
2022/01/14 00:17:57;;;;;;;44.85;16.98;;;;;;;-1.44;98.35;100560.00;5005603;28;20042;-64
2022/01/14 00:20:23;;;;;;;37.65;16.92;;;;;;;-1.47;97.82;100562.41;5005929;28;20034;-64
2022/01/14 00:22:49;;;;;;;43.67;19.70;;;;;;;-1.60;97.54;100565.06;5006115;28;20337;-64
2022/01/14 00:33:30;;;;;;;40.53;19.48;;;;;;;-1.71;99.54;100563.53;5016564;28;20228;-64
2022/01/14 00:35:55;;;;;;;57.63;22.65;;;;;;;-1.62;99.69;100569.25;5024723;28;20085;-64
2022/01/14 00:38:21;;;;;;;69.13;23.08;;;;;;;-1.65;99.46;100558.72;5024822;28;20085;-64
2022/01/14 00:40:46;;;;;;;40.85;18.10;;;;;;;-1.58;98.78;100563.44;5025027;28;20041;-64
2022/01/14 00:43:12;;;;;;;45.08;19.33;;;;;;;-1.60;98.97;100557.31;5024518;28;20245;-64
2022/01/14 00:45:39;;;;;;;43.72;19.73;;;;;;;-1.58;98.51;100560.88;5021215;28;20089;-64
2022/01/14 00:48:05;;;;;;;37.75;16.63;;;;;;;-1.56;98.28;100560.97;5005703;28;20317;-64
2022/01/14 00:50:33;;;;;;;46.00;21.08;;;;;;;-1.61;98.78;100564.97;5005539;28;20310;-64
2022/01/14 00:52:59;;;;;;;45.05;19.83;;;;;;;-1.56;98.54;100561.88;5005514;28;20077;-64
2022/01/14 00:55:38;;;;;;;45.58;19.02;;;;;;;-1.53;98.06;100558.56;5012729;28;20206;-64
2022/01/14 01:00:47;;;;;;;48.53;19.45;;;;;;;-1.73;98.07;100564.25;5014801;28;20095;-64
2022/01/14 01:03:12;;;;;;;41.85;16.70;;;;;;;-1.70;98.30;100567.91;5024417;28;20025;-64
2022/01/14 01:05:38;;;;;;;41.83;18.30;;;;;;;-1.61;98.37;100565.88;5008690;28;20022;-64
2022/01/14 01:08:09;;;;;;;38.70;16.52;;;;;;;-1.60;97.65;100559.91;5023540;28;20029;-64
2022/01/14 01:10:35;;;;;;;41.08;18.75;;;;;;;-1.73;97.75;100553.94;5024291;28;20037;-64
2022/01/14 01:13:10;;;;;;;45.78;19.55;;;;;;;-1.71;98.06;100563.53;5024074;28;20064;-64
2022/01/14 01:15:36;;;;;;;34.28;16.35;;;;;;;-1.70;98.42;100551.53;5024464;28;20013;-64
2022/01/14 01:18:01;;;;;;;49.58;16.92;;;;;;;-1.61;97.91;100555.56;5008989;28;20093;-64
2022/01/14 01:20:27;;;;;;;29.63;13.73;;;;;;;-1.70;97.45;100560.19;5022748;28;20017;-64
2022/01/14 01:22:54;;;;;;;34.75;14.88;;;;;;;-1.76;97.45;100557.22;5024160;28;20018;-64
2022/01/14 01:25:23;;;;;;;35.67;17.35;;;;;;;-1.84;97.59;100549.84;5023940;28;20021;-64
2022/01/14 01:27:50;;;;;;;38.95;15.50;;;;;;;-1.74;97.72;100553.03;5005250;28;20113;-64
2022/01/14 01:30:38;;;;;;;48.38;16.50;;;;;;;-1.88;97.67;100553.91;5004805;28;20026;-64
2022/01/14 01:33:05;;;;;;;45.80;17.70;;;;;;;-2.03;98.14;100552.13;5012864;28;20038;-64
2022/01/14 01:35:31;;;;;;;39.92;17.25;;;;;;;-1.95;98.36;100550.88;5004814;28;20067;-64
2022/01/14 01:37:56;;;;;;;42.60;16.60;;;;;;;-1.92;98.21;100546.78;5020676;28;20030;-64
2022/01/14 01:40:25;;;;;;;34.67;16.50;;;;;;;-1.92;98.32;100546.78;5023728;28;20416;-64
2022/01/14 01:42:51;;;;;;;44.35;15.85;;;;;;;-1.85;98.58;100553.19;5023894;28;20036;-64
2022/01/14 01:45:25;;;;;;;41.53;16.02;;;;;;;-1.80;98.35;100552.69;5022541;28;20318;-64
2022/01/14 01:47:52;;;;;;;37.53;15.65;;;;;;;-1.80;98.25;100547.53;5009399;28;20028;-64
2022/01/14 01:50:24;;;;;;;37.55;14.93;;;;;;;-1.79;97.87;100548.41;5023421;28;20080;-64
2022/01/14 01:52:50;;;;;;;35.22;16.15;;;;;;;-1.82;97.99;100554.28;5023968;28;20022;-64
2022/01/14 01:55:16;;;;;;;37.10;16.63;;;;;;;-1.81;98.33;100555.19;5023622;28;20041;-64
2022/01/14 01:57:43;;;;;;;44.42;18.70;;;;;;;-1.75;97.75;100559.00;5023586;28;20332;-64
2022/01/14 02:00:12;;;;;;;33.88;15.35;;;;;;;-1.70;97.77;100554.09;5023940;28;20319;-64
2022/01/14 02:02:38;;;;;;;39.90;15.73;;;;;;;-1.72;97.28;100561.75;5015928;28;20257;-64
2022/01/14 02:05:05;;;;;;;32.33;15.65;;;;;;;-1.83;97.11;100556.78;5012478;28;20030;-64
2022/01/14 02:07:34;;;;;;;39.90;15.32;;;;;;;-1.90;97.12;100558.06;5004473;28;20048;-64
2022/01/14 02:10:00;;;;;;;42.95;17.98;;;;;;;-2.04;97.25;100556.38;5007515;28;20026;-64
2022/01/14 02:12:34;;;;;;;43.55;15.55;;;;;;;-2.04;98.24;100556.38;5027423;28;20037;-64
2022/01/14 02:15:25;;;;;;;33.58;14.38;;;;;;;-1.97;98.64;100553.34;5027269;28;20024;-64
2022/01/14 02:23:05;;;;;;;29.13;15.23;;;;;;;-2.07;98.06;100537.22;5009457;28;20057;-64
2022/01/14 02:25:31;;;;;;;29.27;14.23;;;;;;;-2.00;98.01;100524.78;5008125;28;20093;-64
2022/01/14 02:28:05;;;;;;;41.67;15.38;;;;;;;-2.04;98.17;100525.41;5008038;28;20050;-64
2022/01/14 02:30:32;;;;;;;33.28;13.60;;;;;;;-2.02;98.12;100523.84;5008203;28;20308;-64
2022/01/14 02:32:57;;;;;;;38.22;15.18;;;;;;;-2.03;98.13;100516.88;5011419;28;20013;-64
2022/01/14 02:35:23;;;;;;;35.90;15.35;;;;;;;-2.00;97.89;100511.88;5026838;28;20114;-64
2022/01/14 02:37:49;;;;;;;36.08;14.73;;;;;;;-1.98;97.53;100520.63;5013866;28;20081;-64
2022/01/14 02:40:15;;;;;;;26.15;13.50;;;;;;;-1.92;97.19;100517.50;5008016;28;20089;-64
2022/01/14 02:42:41;;;;;;;39.08;15.75;;;;;;;-1.95;97.16;100510.50;5017711;28;20025;-64
2022/01/14 02:45:10;;;;;;;41.95;15.48;;;;;;;-2.06;97.17;100503.78;5026869;28;20041;-64
2022/01/14 02:47:35;;;;;;;37.67;13.50;;;;;;;-2.02;97.77;100500.59;5009425;28;20032;-64
2022/01/14 02:50:02;;;;;;;29.67;12.65;;;;;;;-1.99;97.17;100503.38;5007730;28;20274;-64
2022/01/14 02:52:42;;;;;;;29.05;14.57;;;;;;;-1.99;97.34;100505.94;5022824;28;20039;-64
2022/01/14 02:55:20;;;;;;;33.25;15.30;;;;;;;-2.21;96.96;100490.00;5027029;28;20028;-64
2022/01/14 02:57:48;;;;;;;33.28;15.18;;;;;;;-2.34;97.53;100490.06;5009713;28;20022;-64
2022/01/14 03:00:16;;;;;;;32.90;15.07;;;;;;;-2.28;97.84;100492.97;5007550;28;20038;-64
2022/01/14 03:02:47;;;;;;;53.05;17.02;;;;;;;-2.20;98.21;100491.75;5007406;28;20029;-64
2022/01/14 03:05:14;;;;;;;37.50;14.48;;;;;;;-2.10;97.41;100483.78;5009439;28;20077;-64
2022/01/14 03:07:41;;;;;;;32.60;14.93;;;;;;;-2.07;97.24;100483.94;5026496;28;20032;-64
2022/01/14 03:10:08;;;;;;;28.55;13.27;;;;;;;-2.05;96.62;100482.38;5026182;28;20089;-64
2022/01/14 03:12:35;;;;;;;27.88;13.13;;;;;;;-2.11;96.90;100476.84;5026337;28;20252;-64
2022/01/14 03:15:00;;;;;;;33.17;13.95;;;;;;;-2.16;96.80;100473.09;5012282;28;20026;-64
2022/01/14 03:17:28;;;;;;;26.90;13.63;;;;;;;-2.27;96.78;100474.16;5007181;28;20018;-64
2022/01/14 03:19:53;;;;;;;30.02;14.43;;;;;;;-2.26;97.38;100479.41;5011048;28;20033;-64
2022/01/14 03:22:24;;;;;;;34.30;12.40;;;;;;;-2.15;97.47;100480.03;5026151;28;20261;-64
2022/01/14 03:27:15;;;;;;;33.17;14.65;;;;;;;-2.18;96.75;100478.97;5008602;28;20318;-64
2022/01/14 03:29:41;;;;;;;35.28;14.80;;;;;;;-2.22;97.31;100471.84;5019050;28;20061;-64
2022/01/14 03:32:06;;;;;;;33.03;13.20;;;;;;;-2.25;97.05;100472.53;5022482;28;20018;-64
2022/01/14 03:34:32;;;;;;;25.33;12.80;;;;;;;-2.24;97.16;100470.03;5008433;28;20322;-64
2022/01/14 03:36:58;;;;;;;39.75;16.33;;;;;;;-2.32;97.16;100460.06;5012989;28;20014;-64
2022/01/14 03:39:24;;;;;;;34.08;16.35;;;;;;;-2.40;97.41;100456.16;5006764;28;20018;-64
2022/01/14 03:41:50;;;;;;;37.70;15.63;;;;;;;-2.39;98.13;100457.94;5016414;28;20018;-64
2022/01/14 03:44:16;;;;;;;42.72;14.68;;;;;;;-2.27;97.93;100453.53;5026011;28;20024;-64
2022/01/14 03:46:43;;;;;;;28.10;11.23;;;;;;;-2.26;97.45;100456.19;5025832;28;20041;-64
2022/01/14 03:49:08;;;;;;;28.15;10.90;;;;;;;-2.28;97.62;100459.44;5022173;28;20049;-64
2022/01/14 03:51:34;;;;;;;27.15;13.93;;;;;;;-2.17;97.63;100455.84;5006621;28;20026;-64
2022/01/14 03:53:59;;;;;;;37.03;15.45;;;;;;;-2.19;97.34;100460.00;5006606;28;20350;-64
2022/01/14 03:56:25;;;;;;;30.27;12.77;;;;;;;-2.15;97.33;100463.66;5006749;28;20183;-64
2022/01/14 03:58:51;;;;;;;21.45;10.65;;;;;;;-2.30;96.70;100468.81;5021442;28;20205;-64
2022/01/14 04:01:19;;;;;;;31.27;14.52;;;;;;;-2.25;97.19;100462.22;5025211;28;20089;-64
2022/01/14 04:03:46;;;;;;;34.17;12.43;;;;;;;-2.23;96.75;100465.78;5020603;28;20041;-64
2022/01/14 04:06:11;;;;;;;29.25;11.35;;;;;;;-2.29;97.19;100470.56;5006442;28;20033;-64
2022/01/14 04:08:37;;;;;;;36.08;13.88;;;;;;;-2.35;97.19;100465.94;5006168;28;20026;-64
2022/01/14 04:11:04;;;;;;;30.33;12.43;;;;;;;-2.30;97.27;100469.69;5006039;28;20026;-64
2022/01/14 04:13:49;;;;;;;35.15;12.45;;;;;;;-2.41;97.19;100459.53;5006323;28;20214;-64
2022/01/14 04:16:16;;;;;;;37.28;14.25;;;;;;;-2.37;98.50;100466.66;5005997;28;20027;-64
2022/01/14 04:18:42;;;;;;;28.42;14.60;;;;;;;-2.38;98.20;100467.44;5006868;28;20030;-64
2022/01/14 04:21:08;;;;;;;27.58;12.73;;;;;;;-2.32;98.07;100467.81;5024985;28;20017;-64
2022/01/14 04:23:34;;;;;;;41.05;16.45;;;;;;;-2.31;98.09;100467.03;5024852;28;20100;-64
2022/01/14 04:25:59;;;;;;;24.38;11.60;;;;;;;-2.50;97.75;100465.00;5024603;28;20067;-64
2022/01/14 04:28:29;;;;;;;26.10;10.55;;;;;;;-2.40;97.89;100467.34;5025000;28;20046;-64
2022/01/14 04:30:56;;;;;;;31.98;13.52;;;;;;;-2.49;98.18;100465.91;5024833;28;20033;-64
2022/01/14 04:33:28;;;;;;;25.20;12.13;;;;;;;-2.44;98.04;100465.38;5006978;28;20089;-64
2022/01/14 04:35:57;;;;;;;;;;;;;;;-2.33;98.12;100459.22;5006046;28;20258;-64
2022/01/14 04:38:23;;;;;;;23.13;10.93;;;;;;;-2.34;97.89;100453.97;5020490;28;20193;-64
2022/01/14 04:40:49;;;;;;;28.33;12.45;;;;;;;-2.30;97.55;100458.50;5024663;28;20272;-64
2022/01/14 04:43:17;;;;;;;27.73;12.25;;;;;;;-2.32;97.39;100449.75;5024617;28;20033;-64
2022/01/14 04:45:56;;;;;;;31.13;12.75;;;;;;;-2.40;97.03;100451.00;5024228;28;20313;-64
2022/01/14 04:48:22;;;;;;;32.03;11.10;;;;;;;-2.38;97.06;100449.41;5016637;28;20093;-64
2022/01/14 04:50:50;;;;;;;31.45;10.65;;;;;;;-2.26;97.21;100455.28;5023558;28;20021;-64
2022/01/14 04:53:15;;;;;;;22.83;11.35;;;;;;;-2.26;97.05;100460.44;5014488;28;20032;-64
2022/01/14 04:55:40;;;;;;;32.88;13.40;;;;;;;-2.25;97.16;100464.78;5024445;28;20085;-64
2022/01/14 04:58:06;;;;;;;39.47;13.38;;;;;;;-2.44;97.12;100452.50;5024414;28;20025;-64
2022/01/14 05:00:32;;;;;;;33.97;13.93;;;;;;;-2.66;97.38;100446.84;5024056;28;20022;-64
2022/01/14 05:02:57;;;;;;;28.02;12.48;;;;;;;-2.70;97.35;100449.13;5024548;28;20013;-64
2022/01/14 05:05:27;;;;;;;33.03;13.10;;;;;;;-2.72;97.57;100445.59;5024212;28;20025;-64
2022/01/14 05:07:52;;;;;;;36.38;12.02;;;;;;;-2.66;98.11;100445.97;5013850;28;20030;-64
2022/01/14 05:12:54;;;;;;;22.42;11.48;;;;;;;-2.56;97.75;100448.31;5005432;28;20033;-64
2022/01/14 05:15:20;;;;;;;35.67;14.00;;;;;;;-2.48;97.36;100449.66;5009317;28;20026;-64
2022/01/14 05:17:47;;;;;;;32.80;11.13;;;;;;;-2.40;96.98;100445.84;5024262;28;20044;-64
2022/01/14 05:20:13;;;;;;;24.02;11.60;;;;;;;-2.39;96.45;100443.38;5022400;28;20076;-64
2022/01/14 05:22:38;;;;;;;26.38;12.07;;;;;;;-2.47;96.29;100448.84;5009188;28;20026;-64
2022/01/14 05:25:06;;;;;;;26.55;12.10;;;;;;;-2.48;95.99;100447.97;5003743;28;20033;-64
2022/01/14 05:27:31;;;;;;;36.85;12.55;;;;;;;-2.58;96.49;100449.88;5022301;28;20048;-64
2022/01/14 05:29:57;;;;;;;26.65;12.90;;;;;;;-2.63;97.18;100451.28;5022934;28;20017;-64
2022/01/14 05:32:23;;;;;;;22.92;10.88;;;;;;;-2.60;97.15;100454.06;5022630;28;20031;-64
2022/01/14 05:34:48;;;;;;;28.67;12.75;;;;;;;-2.57;97.08;100455.13;5018989;28;20026;-65
2022/01/14 05:37:14;;;;;;;33.55;12.98;;;;;;;-2.67;97.02;100451.91;5021765;28;20266;-67
2022/01/14 05:39:40;;;;;;;39.60;11.75;;;;;;;-2.87;97.33;100449.81;5023666;28;20025;-66
2022/01/14 05:42:06;;;;;;;26.95;10.70;;;;;;;-2.71;97.82;100439.63;5024442;28;20026;-66
2022/01/14 05:44:32;;;;;;;29.75;12.73;;;;;;;-2.70;97.72;100449.13;5023415;28;20034;-66
2022/01/14 05:46:59;;;;;;;24.55;11.77;;;;;;;-2.73;97.90;100454.09;5024106;28;20034;-66
2022/01/14 05:49:25;;;;;;;24.08;11.60;;;;;;;-2.71;97.69;100444.78;5024137;28;20088;-66
2022/01/14 05:51:51;;;;;;;28.42;12.98;;;;;;;-2.79;98.02;100441.75;5024117;28;20029;-66
2022/01/14 05:54:18;;;;;;;30.50;12.00;;;;;;;-2.68;97.94;100442.41;5024069;28;20036;-66
2022/01/14 05:56:43;;;;;;;29.50;11.88;;;;;;;-2.61;97.62;100439.41;5024063;28;20033;-66
2022/01/14 05:59:10;;;;;;;28.17;12.40;;;;;;;-2.54;97.19;100436.38;5024140;28;20225;-66
2022/01/14 06:01:36;;;;;;;36.30;12.25;;;;;;;-2.62;96.85;100437.63;5023996;28;20029;-66
2022/01/14 06:04:03;;;;;;;28.33;12.60;;;;;;;-2.62;96.76;100437.63;5024031;28;20340;-66
2022/01/14 06:06:29;;;;;;;36.17;13.73;;;;;;;-2.69;96.70;100435.47;5024128;28;20032;-66
2022/01/14 06:08:54;;;;;;;25.60;12.02;;;;;;;-2.78;96.17;100432.34;5023958;28;20369;-66
2022/01/14 06:11:20;;;;;;;26.10;12.95;;;;;;;-2.80;96.27;100436.50;5022219;28;20077;-66
2022/01/14 06:13:46;;;;;;;23.75;11.80;;;;;;;-2.69;96.36;100435.47;5022980;28;20037;-66
2022/01/14 06:16:11;;;;;;;26.17;11.32;;;;;;;-2.72;96.01;100435.28;5022964;28;20085;-66
2022/01/14 06:18:37;;;;;;;37.67;12.10;;;;;;;-2.76;96.42;100441.03;5022972;28;20124;-66
2022/01/14 06:21:03;;;;;;;35.58;10.55;;;;;;;-2.74;97.10;100439.44;5022923;28;20026;-66
2022/01/14 06:23:29;;;;;;;20.60;10.27;;;;;;;-2.61;96.72;100444.56;5022534;28;20092;-66
2022/01/14 06:25:54;;;;;;;28.90;11.07;;;;;;;-2.64;96.26;100452.09;5022546;28;20048;-66
2022/01/14 06:28:19;;;;;;;27.10;10.73;;;;;;;-2.74;96.00;100447.19;5022890;28;20305;-66
2022/01/14 06:30:45;;;;;;;35.33;11.98;;;;;;;-2.89;95.86;100446.22;5023288;28;20081;-66
2022/01/14 06:33:10;;;;;;;22.23;10.13;;;;;;;-2.98;96.50;100435.34;5023739;28;20090;-66
2022/01/14 06:35:36;;;;;;;28.17;12.88;;;;;;;-3.02;96.94;100438.53;5023735;28;20067;-66
2022/01/14 06:38:02;;;;;;;36.33;14.40;;;;;;;-2.87;97.04;100436.91;5019843;28;20022;-66
2022/01/14 06:40:29;;;;;;;26.00;11.95;;;;;;;-2.77;97.10;100441.84;5003987;28;20225;-66
2022/01/14 06:42:54;;;;;;;28.70;11.10;;;;;;;-2.86;96.49;100441.25;5002312;28;20030;-66
2022/01/14 06:45:21;;;;;;;25.42;11.27;;;;;;;-2.84;96.37;100440.59;5003391;28;20060;-66
2022/01/14 06:47:47;;;;;;;24.73;10.80;;;;;;;-2.81;96.19;100439.88;5004001;28;20034;-66
2022/01/14 06:50:12;;;;;;;28.60;9.18;;;;;;;-2.78;95.83;100445.22;5003772;28;20036;-66
2022/01/14 06:52:37;;;;;;;24.52;11.60;;;;;;;-2.85;95.54;100443.94;5003924;28;20030;-66
2022/01/14 06:55:03;;;;;;;24.73;11.02;;;;;;;-2.84;95.83;100437.09;5005481;28;20029;-66
2022/01/14 06:57:29;;;;;;;28.45;9.68;;;;;;;-2.91;95.91;100448.72;5007476;28;20027;-66
2022/01/14 06:59:54;;;;;;;18.73;10.10;;;;;;;-2.95;96.36;100441.59;5007436;28;20049;-66
2022/01/14 07:02:20;;;;;;;19.98;9.27;;;;;;;-2.95;95.96;100451.91;5007390;28;20037;-66
2022/01/14 07:04:46;;;;;;;32.25;11.75;;;;;;;-2.88;96.12;100448.03;5007372;28;20033;-66
2022/01/14 07:07:11;;;;;;;29.38;11.25;;;;;;;-2.83;96.74;100446.59;5007212;28;20033;-66
2022/01/14 07:09:38;;;;;;;30.45;11.95;;;;;;;-2.86;95.74;100446.41;5007237;28;20381;-66
2022/01/14 07:12:04;;;;;;;23.13;11.07;;;;;;;-2.90;95.50;100454.75;5007474;28;20227;-66
2022/01/14 07:14:29;;;;;;;22.90;10.50;;;;;;;-2.87;95.79;100449.81;5007168;28;20038;-66
2022/01/14 07:16:56;;;;;;;27.10;11.95;;;;;;;-2.81;95.65;100450.19;5007126;28;20029;-66
2022/01/14 07:19:23;;;;;;;23.35;11.90;;;;;;;-2.86;95.60;100456.72;5005943;28;20096;-66
2022/01/14 07:21:48;;;;;;;30.17;11.90;;;;;;;-2.77;95.69;100457.28;5006994;28;20030;-66
2022/01/14 07:24:15;;;;;;;30.08;11.63;;;;;;;-2.68;95.37;100458.78;5007177;28;20030;-66
2022/01/14 07:26:41;;;;;;;27.50;10.82;;;;;;;-2.67;95.06;100462.22;5006699;28;20093;-66
2022/01/14 07:29:06;;;;;;;18.60;9.98;;;;;;;-2.67;95.08;100475.09;5006969;28;20033;-66
2022/01/14 07:31:32;;;;;;;25.58;9.98;;;;;;;-2.74;95.31;100472.94;5006969;28;20026;-66
2022/01/14 07:33:58;;;;;;;24.00;10.27;;;;;;;-2.69;95.59;100476.72;5006790;28;20381;-66
2022/01/14 07:36:23;;;;;;;16.35;9.63;;;;;;;-2.77;95.14;100473.66;5006788;28;20073;-66
2022/01/14 07:38:49;;;;;;;32.33;11.60;;;;;;;-3.17;95.65;100473.63;5006732;28;20026;-66
2022/01/14 07:41:15;;;;;;;29.30;10.85;;;;;;;-2.99;96.01;100474.78;5006703;28;20053;-66
2022/01/14 07:43:46;;;;;;;28.73;12.15;;;;;;;-2.99;96.40;100464.50;5006616;28;20322;-66
2022/01/14 07:46:11;;;;;;;17.40;9.73;;;;;;;-2.87;96.39;100480.72;5006510;28;20029;-66
2022/01/14 07:48:36;;;;;;;30.17;11.68;;;;;;;-2.81;96.88;100475.94;5006625;28;20045;-66
2022/01/14 07:51:02;;;;;;;23.80;10.43;;;;;;;-2.76;96.51;100474.53;5006523;28;20303;-66
2022/01/14 07:53:27;;;;;;;22.73;11.20;;;;;;;-2.68;96.31;100475.91;5006468;28;20093;-66
2022/01/14 07:55:53;;;;;;;18.85;8.20;;;;;;;-2.60;96.23;100477.25;5006405;28;20112;-66
2022/01/14 07:58:18;;;;;;;25.17;10.75;;;;;;;-2.56;96.00;100474.09;5006360;28;20022;-66
2022/01/14 08:00:44;;;;;;;21.50;10.88;;;;;;;-2.58;95.63;100465.34;5006324;28;20022;-66
2022/01/14 08:03:09;;;;;;;26.08;10.88;;;;;;;-2.59;95.97;100468.75;5006323;28;20186;-66
2022/01/14 08:05:35;;;;;;;21.15;11.32;;;;;;;-2.59;96.09;100474.75;5005974;28;20090;-66
2022/01/14 08:08:04;;;;;;;33.92;13.75;;;;;;;-2.46;96.10;100466.09;5005511;28;20022;-66
2022/01/14 08:10:31;;;;;;;58.25;21.30;;;;;;;-2.37;95.90;100466.66;5006253;28;20133;-66
2022/01/14 08:12:57;;;;;;;68.00;28.33;;;;;;;-2.24;95.87;100476.91;5006341;28;20041;-66
2022/01/14 08:15:23;;;;;;;47.15;21.10;;;;;;;-2.29;95.65;100480.88;5006023;28;20314;-66
2022/01/14 08:17:49;;;;;;;44.47;19.17;;;;;;;-2.21;96.14;100474.53;5005903;28;20145;-66
2022/01/14 08:20:15;;;;;;;35.53;13.48;;;;;;;-2.11;95.97;100476.84;5005933;28;20022;-66
2022/01/14 08:22:40;;;;;;;30.52;14.65;;;;;;;-2.01;96.09;100484.31;5005921;28;20321;-66
2022/01/14 08:25:06;;;;;;;34.67;15.18;;;;;;;-1.94;96.13;100481.28;5005853;28;20022;-66
2022/01/14 08:27:32;;;;;;;29.17;11.20;;;;;;;-1.87;95.94;100480.84;5005577;28;20045;-66
2022/01/14 08:29:57;;;;;;;38.22;14.55;;;;;;;-1.87;96.08;100477.41;5005747;28;20045;-66
2022/01/14 08:32:23;;;;;;;40.95;15.13;;;;;;;-1.67;95.39;100471.69;5005717;28;20061;-66
2022/01/14 08:34:50;;;;;;;48.22;19.48;;;;;;;-1.14;93.85;100473.91;5005687;28;20029;-66
2022/01/14 08:37:15;;;;;;;36.58;17.45;;;;;;;-0.12;91.38;100476.91;5005585;28;20022;-66
2022/01/14 08:39:41;;;;;;;38.83;15.95;;;;;;;0.88;87.88;100469.84;5005600;28;20292;-66
2022/01/14 08:42:12;;;;;;;47.42;17.25;;;;;;;1.62;83.43;100481.13;5005761;28;20050;-66
2022/01/14 08:44:37;;;;;;;50.25;19.30;;;;;;;2.32;80.84;100475.59;5005488;28;20030;-66
2022/01/14 08:47:08;;;;;;;43.50;19.65;;;;;;;2.85;78.65;100470.88;5005410;28;20033;-66
2022/01/14 08:49:33;;;;;;;50.28;19.83;;;;;;;3.19;77.20;100468.78;5005486;28;20030;-66
2022/01/14 08:51:58;;;;;;;50.35;21.42;;;;;;;3.63;76.42;100468.75;5005338;28;20022;-66
2022/01/14 08:54:24;;;;;;;62.47;28.45;;;;;;;3.42;76.09;100460.13;5005307;28;20050;-66
2022/01/14 08:56:49;;;;;;;59.75;26.27;;;;;;;4.09;74.32;100455.66;5005503;28;20018;-66
2022/01/14 08:59:17;;;;;;;48.25;18.75;;;;;;;4.26;73.05;100454.50;5005240;28;20318;-66
2022/01/14 09:01:43;;;;;;;48.97;19.60;;;;;;;4.19;72.11;100453.44;5005183;28;20072;-66
2022/01/14 09:04:09;;;;;;;37.72;16.67;;;;;;;4.47;73.47;100450.91;5005111;28;20026;-66
2022/01/14 09:06:35;;;;;;;44.63;20.15;;;;;;;5.05;71.32;100453.69;5005007;28;20381;-66
2022/01/14 09:09:00;;;;;;;51.45;19.60;;;;;;;5.08;70.26;100448.56;5005052;28;20026;-66
2022/01/14 09:11:26;;;;;;;42.33;19.45;;;;;;;4.83;70.85;100455.56;5005012;28;20026;-66
2022/01/14 09:13:52;;;;;;;48.40;18.65;;;;;;;4.30;71.97;100446.84;5004966;28;20022;-66
2022/01/14 09:16:20;;;;;;;43.50;18.40;;;;;;;5.39;71.26;100455.59;5004910;28;20085;-66
2022/01/14 09:18:48;;;;;;;51.75;19.65;;;;;;;5.72;69.56;100457.47;5004705;28;20065;-66
2022/01/14 09:21:15;;;;;;;51.58;20.95;;;;;;;5.99;69.43;100446.94;5004863;28;20026;-66
2022/01/14 09:23:43;;;;;;;40.08;18.52;;;;;;;5.43;68.35;100447.00;5004681;28;20018;-66
2022/01/14 09:26:08;;;;;;;44.70;18.08;;;;;;;5.61;70.81;100453.69;5004540;28;20393;-66
2022/01/14 09:28:34;;;;;;;42.47;17.67;;;;;;;5.46;71.97;100442.78;5004975;28;20034;-66
2022/01/14 09:31:00;;;;;;;35.00;14.50;;;;;;;6.26;69.44;100442.44;5005083;28;20071;-66
2022/01/14 09:33:25;;;;;;;29.65;13.23;;;;;;;5.11;71.63;100438.22;5004697;28;20030;-66
2022/01/14 09:35:51;;;;;;;29.00;12.43;;;;;;;5.52;73.36;100447.28;5004923;28;20217;-66
2022/01/14 09:38:17;;;;;;;29.75;13.23;;;;;;;6.22;70.56;100445.84;5004603;28;20050;-66
2022/01/14 09:40:47;;;;;;;29.60;11.90;;;;;;;6.60;69.30;100450.31;5004517;28;20026;-66
2022/01/14 09:43:14;;;;;;;38.47;14.00;;;;;;;6.83;69.39;100451.78;5004580;28;20022;-66
2022/01/14 09:45:40;;;;;;;31.58;12.80;;;;;;;6.81;68.37;100456.09;5004455;28;20217;-66
2022/01/14 09:48:05;;;;;;;35.97;13.75;;;;;;;6.83;68.97;100458.75;5004784;28;20025;-66
2022/01/14 09:50:31;;;;;;;31.75;14.02;;;;;;;6.82;68.97;100463.09;5004499;28;20041;-66
2022/01/14 09:52:56;;;;;;;32.25;14.00;;;;;;;6.62;69.46;100459.09;5004452;28;20022;-66
2022/01/14 09:55:24;;;;;;;32.33;13.85;;;;;;;6.18;70.93;100464.91;5004424;28;20022;-66
2022/01/14 09:57:53;;;;;;;34.88;13.98;;;;;;;4.45;76.33;100456.91;5004411;28;20257;-66
2022/01/14 10:00:19;;;;;;;27.83;12.65;;;;;;;4.39;80.28;100457.59;5004395;28;20061;-66
2022/01/14 10:02:44;;;;;;;33.03;14.00;;;;;;;4.25;80.31;100458.84;5004355;28;20373;-66
2022/01/14 10:05:30;;;;;;;31.50;14.15;;;;;;;4.28;81.13;100455.47;5004611;28;20369;-66
2022/01/14 10:08:13;;;;;;;32.17;13.02;;;;;;;4.17;82.21;100465.50;5004286;28;20046;-66
2022/01/14 10:10:43;;;;;;;34.53;13.32;;;;;;;3.88;83.52;100457.50;5004600;28;20034;-66
2022/01/14 10:13:18;;;;;;;32.58;12.55;;;;;;;3.86;83.44;100452.22;5004534;28;20425;-66
2022/01/14 10:15:46;;;;;;;37.90;15.52;;;;;;;3.48;84.32;100455.16;5004237;28;20321;-66
2022/01/14 10:18:13;;;;;;;40.42;15.98;;;;;;;2.98;87.08;100444.53;5004195;28;20094;-66
2022/01/14 10:20:39;;;;;;;31.73;15.07;;;;;;;2.87;88.16;100438.03;5004268;28;20226;-66
2022/01/14 10:23:04;;;;;;;34.08;14.48;;;;;;;2.86;89.55;100436.25;5004272;28;20034;-66
2022/01/14 10:25:29;;;;;;;34.85;15.15;;;;;;;2.86;89.49;100435.34;5004050;28;20089;-66
2022/01/14 10:27:55;;;;;;;32.92;14.75;;;;;;;2.92;90.37;100433.00;5004067;28;20074;-66
2022/01/14 10:30:28;;;;;;;31.33;13.45;;;;;;;3.20;91.04;100428.03;5006001;28;20030;-66
2022/01/14 10:32:58;;;;;;;35.15;14.95;;;;;;;3.22;90.81;100429.88;5008173;28;20026;-66
2022/01/14 10:35:27;;;;;;;32.83;14.38;;;;;;;3.40;89.54;100422.75;5006539;28;20098;-66
2022/01/14 10:37:59;;;;;;;34.63;14.20;;;;;;;3.23;89.42;100423.81;5012430;28;20026;-66
2022/01/14 10:40:28;;;;;;;32.92;14.80;;;;;;;3.32;89.80;100418.97;5016008;28;20021;-66
2022/01/14 10:43:04;;;;;;;36.83;14.18;;;;;;;3.47;90.44;100424.75;5017219;28;20072;-66
2022/01/14 10:45:30;;;;;;;27.75;13.27;;;;;;;3.52;91.60;100420.63;5017156;28;20025;-66
2022/01/14 10:48:00;;;;;;;29.83;13.23;;;;;;;3.71;90.88;100415.25;5017522;28;20041;-66
2022/01/14 10:50:41;;;;;;;29.48;11.95;;;;;;;3.86;90.59;100413.16;5015845;28;20018;-66
2022/01/14 10:53:37;;;;;;;28.10;12.70;;;;;;;4.03;90.74;100404.22;5017191;28;20029;-66
2022/01/14 10:56:07;;;;;;;19.10;9.82;;;;;;;4.17;89.97;100402.06;5006330;28;20265;-66
2022/01/14 10:58:35;;;;;;;26.38;10.30;;;;;;;4.30;88.82;100399.94;5009432;28;20195;-66
2022/01/14 11:01:11;;;;;;;29.63;12.27;;;;;;;4.42;89.06;100405.56;5006117;28;20029;-66
2022/01/14 11:03:39;;;;;;;28.58;11.23;;;;;;;4.53;88.63;100392.00;5006748;28;20242;-66
2022/01/14 11:06:40;;;;;;;28.58;11.82;;;;;;;4.62;90.79;100397.50;5006349;28;20318;-66
2022/01/14 11:09:11;;;;;;;19.13;10.07;;;;;;;4.75;90.11;100384.00;5002909;28;20034;-66
2022/01/14 11:11:39;;;;;;;22.50;10.30;;;;;;;4.89;89.32;100393.13;5006405;28;20318;-66
2022/01/14 11:14:05;;;;;;;28.42;10.73;;;;;;;5.03;87.48;100397.94;5005887;28;20046;-67
2022/01/14 11:16:32;;;;;;;21.75;9.95;;;;;;;5.15;86.99;100387.88;5006238;28;20028;-66
2022/01/14 11:19:00;;;;;;;26.65;9.00;;;;;;;5.22;86.82;100383.75;5006437;28;20333;-66
2022/01/14 11:24:14;;;;;;;23.55;9.10;;;;;;;5.42;86.50;100382.59;5008627;28;20207;-66
2022/01/14 11:26:43;;;;;;;20.73;8.60;;;;;;;5.50;86.31;100381.06;5021588;28;20042;-66
2022/01/14 11:29:15;;;;;;;22.10;9.07;;;;;;;5.57;86.59;100367.34;5015538;28;20045;-66
2022/01/14 11:31:42;;;;;;;19.75;9.73;;;;;;;5.69;86.53;100370.28;5016173;28;20026;-66
2022/01/14 11:34:27;;;;;;;22.33;8.20;;;;;;;5.81;85.72;100357.56;5017380;28;20033;-66
2022/01/14 11:36:59;;;;;;;24.98;10.20;;;;;;;5.91;87.31;100362.22;5014436;28;20026;-66